Terminal Aerodrome Forecast
Issued by NWS

Home | Current Version | Previous Version | Text Only | Print | Product List | Glossary Off
Versions: 1 2 3 4 5 6 7 8 9 10 11 12 13 14 15 16 17 18

000
FTUS43 KMPX 190900 AAB
TAFAXN
TAF AMD
KAXN 190950Z 1910/2006 15008KT 4SM BR OVC007
      TEMPO 1910/1913 1SM -SN BR OVC005
     FM191600 17009KT P6SM OVC015=

USA.gov is the U.S. government's official web portal to all federal, state and local government web resources and services.